Time;durP1;ratioP1;P1;durP2;ratioP2;P2;SDS_P1;SDS_P2;PMS_P1;PMS_P2;Temp;Humidity;BMP_temperature;BMP_pressure;BME280_temperature;BME280_humidity;BME280_pressure;Samples;Min_cycle;Max_cycle;Signal;HPM_P1;HPM_P2
2022/06/12 18:47:47;;;;;;;;;5.25;4.00;;;;;24.07;36.77;101683.16;4927286;26;45878;-49
2022/06/12 18:50:15;;;;;;;;;4.25;4.00;;;;;24.07;36.66;101680.50;4959562;28;45492;-53
2022/06/12 18:52:41;;;;;;;;;4.00;4.00;;;;;24.07;36.67;101691.09;4959765;28;45313;-53
2022/06/12 18:55:08;;;;;;;;;3.75;3.75;;;;;24.08;37.11;101691.03;4959937;28;45243;-52
2022/06/12 18:57:33;;;;;;;;;3.00;3.00;;;;;24.07;37.08;101691.97;4957967;28;48082;-44
2022/06/12 18:59:59;;;;;;;;;2.75;2.75;;;;;24.08;37.43;101691.03;4957595;28;45315;-47
2022/06/12 19:02:27;;;;;;;;;4.25;4.00;;;;;24.07;37.15;101691.97;4959380;28;45454;-56
2022/06/12 19:04:57;;;;;;;;;4.00;4.00;;;;;24.08;37.33;101703.41;4957757;28;45399;-49
2022/06/12 19:07:23;;;;;;;;;4.00;4.00;;;;;24.12;37.61;101712.03;4958264;28;46094;-45
2022/06/12 19:09:49;;;;;;;;;3.25;3.00;;;;;24.09;37.42;101719.19;4957956;28;45301;-50
2022/06/12 19:12:14;;;;;;;;;9.75;4.25;;;;;24.10;37.90;101709.47;4958355;28;45416;-50
2022/06/12 19:14:40;;;;;;;;;3.50;3.50;;;;;24.12;37.57;101717.31;4958319;28;45374;-51
2022/06/12 19:17:06;;;;;;;;;5.50;4.00;;;;;24.11;37.51;101719.13;4958006;28;45514;-57
2022/06/12 19:19:33;;;;;;;;;3.75;3.50;;;;;24.10;37.26;101706.81;4958103;28;45893;-52
2022/06/12 19:21:58;;;;;;;;;4.25;3.75;;;;;24.10;37.69;101712.13;4959499;28;45365;-50
2022/06/12 19:24:24;;;;;;;;;2.00;2.00;;;;;24.09;37.48;101727.13;4959557;28;45528;-47
2022/06/12 19:26:50;;;;;;;;;3.50;3.00;;;;;24.10;37.58;101730.66;4958735;28;45289;-55
2022/06/12 19:29:16;;;;;;;;;6.75;3.75;;;;;24.10;37.45;101738.59;4958864;28;45263;-56
2022/06/12 19:31:41;;;;;;;;;3.00;3.00;;;;;24.09;37.55;101737.72;4959083;28;45239;-57
2022/06/12 19:34:07;;;;;;;;;6.50;4.00;;;;;24.09;37.22;101740.38;4958899;28;45337;-46
2022/06/12 19:36:34;;;;;;;;;2.25;2.25;;;;;24.08;36.92;101737.81;4957472;28;46083;-55
2022/06/12 19:39:02;;;;;;;;;6.00;3.25;;;;;24.08;37.60;101753.72;4958510;28;45456;-52
2022/06/12 19:41:28;;;;;;;;;3.75;2.00;;;;;24.08;37.29;101754.59;4959175;28;45396;-55
2022/06/12 19:43:54;;;;;;;;;2.25;2.25;;;;;24.07;37.67;101749.34;4959029;28;45358;-54
2022/06/12 19:46:21;;;;;;;;;2.00;2.00;;;;;24.08;37.63;101765.19;4958289;28;46293;-46
2022/06/12 19:48:46;;;;;;;;;4.50;3.00;;;;;24.07;37.68;101763.47;4957226;28;45337;-53
2022/06/12 19:51:12;;;;;;;;;2.75;2.00;;;;;24.08;37.23;101766.97;4958531;28;45226;-44
2022/06/12 19:53:37;;;;;;;;;3.00;2.25;;;;;24.08;37.50;101764.31;4958738;28;45246;-53
2022/06/12 19:56:03;;;;;;;;;4.25;2.50;;;;;24.07;37.35;101763.47;4958226;28;47006;-46
2022/06/12 19:58:30;;;;;;;;;2.50;2.50;;;;;24.08;37.62;101770.47;4958729;28;45318;-55
2022/06/12 20:01:00;;;;;;;;;2.00;2.00;;;;;24.08;37.30;101780.19;4958902;28;45559;-40
2022/06/12 20:03:26;;;;;;;;;4.00;3.00;;;;;24.09;37.46;101787.22;4958337;28;45400;-43
2022/06/12 20:08:35;;;;;;;;;2.00;2.00;;;;;24.07;37.65;101784.66;4958387;28;45698;-49
2022/06/12 20:11:01;;;;;;;;;5.00;3.75;;;;;24.07;37.62;101786.44;4957740;28;59535;-51
2022/06/12 20:13:26;;;;;;;;;2.00;2.00;;;;;24.06;37.57;101790.03;4958719;28;45568;-52
2022/06/12 20:15:51;;;;;;;;;2.00;2.00;;;;;24.07;37.56;101799.69;4958108;28;46799;-60
2022/06/12 20:18:20;;;;;;;;;1.00;1.00;;;;;24.07;37.56;101799.69;4958105;28;45367;-42
2022/06/12 20:20:50;;;;;;;;;2.00;2.00;;;;;24.07;37.12;101803.19;4958120;28;45348;-43
2022/06/12 20:23:17;;;;;;;;;1.25;1.25;;;;;24.07;37.46;101803.19;4958517;28;45342;-45
2022/06/12 20:25:42;;;;;;;;;2.00;2.00;;;;;24.06;37.13;101804.13;4958055;28;47003;-51
2022/06/12 20:28:08;;;;;;;;;2.25;2.00;;;;;24.06;37.50;101813.84;4958082;28;45317;-55
2022/06/12 20:30:33;;;;;;;;;3.00;1.75;;;;;24.05;37.46;101801.56;4957017;28;45397;-51
2022/06/12 20:32:59;;;;;;;;;3.50;2.00;;;;;24.05;37.24;101813.00;4958620;28;45251;-53
2022/06/12 20:35:24;;;;;;;;;2.75;1.75;;;;;24.05;37.39;101805.06;4958068;28;45990;-55
2022/06/12 20:37:50;;;;;;;;;2.75;2.00;;;;;24.04;36.94;101818.38;4957938;28;45501;-54
2022/06/12 20:40:17;;;;;;;;;1.75;1.75;;;;;24.03;36.69;101809.59;4958185;28;45379;-52
2022/06/12 20:42:43;;;;;;;;;2.00;1.00;;;;;24.03;37.05;101814.88;4958160;28;45348;-52
2022/06/12 20:45:09;;;;;;;;;2.75;2.00;;;;;24.03;36.98;101814.88;4957689;28;46335;-51
2022/06/12 20:47:34;;;;;;;;;3.00;2.00;;;;;24.03;36.95;101814.03;4957562;28;45372;-54
2022/06/12 20:49:59;;;;;;;;;3.00;2.00;;;;;24.03;36.74;101820.19;4957260;28;45314;-55
2022/06/12 20:52:25;;;;;;;;;2.25;1.00;;;;;24.03;37.08;101820.19;4957001;28;45727;-51
2022/06/12 20:54:50;;;;;;;;;1.50;1.50;;;;;24.02;36.63;101813.16;4957675;28;46167;-52
2022/06/12 20:57:15;;;;;;;;;2.00;2.00;;;;;24.01;37.19;101814.09;4957772;28;45210;-51
2022/06/12 20:59:58;;;;;;;;;;;;;;;;;;;;;
2022/06/12 21:02:34;;;;;;;;;2.25;2.00;;;;;24.01;37.07;101827.34;4933858;28;64689;-54
2022/06/12 21:05:07;;;;;;;;;2.00;2.00;;;;;24.00;37.05;101820.34;4958107;28;47018;-54
2022/06/12 21:07:37;;;;;;;;;1.75;1.75;;;;;24.00;36.89;101822.16;4956440;28;45657;-55
2022/06/12 21:10:05;;;;;;;;;2.00;1.00;;;;;24.00;36.44;101825.63;4958321;28;45281;-50
2022/06/12 21:12:37;;;;;;;;;2.50;0.75;;;;;23.97;36.53;101820.53;4958090;28;45363;-55
2022/06/12 21:15:05;;;;;;;;;1.00;1.00;;;;;23.98;36.70;101822.22;4955489;28;45354;-52
2022/06/12 21:17:30;;;;;;;;;1.00;1.00;;;;;23.98;36.64;101826.66;4940706;28;45751;-55
2022/06/12 21:19:57;;;;;;;;;4.25;1.00;;;;;23.96;36.27;101817.94;4957761;28;45387;-52
2022/06/12 21:22:26;;;;;;;;;3.25;1.00;;;;;23.97;36.67;101824.94;4956424;28;45419;-57
2022/06/12 21:24:56;;;;;;;;;1.00;0.75;;;;;23.96;36.89;101829.41;4957574;28;45517;-56
2022/06/12 21:27:21;;;;;;;;;3.00;1.00;;;;;23.97;36.73;101831.13;4955334;28;45832;-44
2022/06/12 21:29:46;;;;;;;;;2.00;2.00;;;;;23.96;37.03;101829.41;4957598;28;45616;-45
2022/06/12 21:32:12;;;;;;;;;2.00;1.25;;;;;23.94;36.41;101825.94;4957558;28;45523;-42
2022/06/12 21:34:37;;;;;;;;;1.00;1.00;;;;;23.95;36.53;101827.69;4957151;28;46105;-43
2022/06/12 21:37:04;;;;;;;;;2.25;1.00;;;;;23.95;36.48;101825.06;4956137;28;48795;-43
2022/06/12 21:39:30;;;;;;;;;1.00;1.00;;;;;23.95;36.61;101833.00;4956359;28;45288;-43
2022/06/12 21:41:55;;;;;;;;;1.00;1.00;;;;;23.96;36.82;101828.53;4957401;28;45538;-55
2022/06/12 21:44:21;;;;;;;;;2.25;1.00;;;;;23.94;36.08;101831.25;4957122;28;46089;-57
2022/06/12 21:46:46;;;;;;;;;1.75;1.75;;;;;23.94;36.44;101825.94;4956965;28;45389;-56
2022/06/12 21:49:12;;;;;;;;;1.25;1.00;;;;;23.93;36.41;101819.78;4957253;28;45336;-56
2022/06/12 21:54:31;;;;;;;;;2.00;2.00;;;;;23.91;36.45;101815.53;4946933;28;46027;-55
2022/06/12 21:56:57;;;;;;;;;2.75;2.00;;;;;23.91;36.05;101821.69;4957138;28;45417;-53
2022/06/12 21:59:23;;;;;;;;;1.00;1.00;;;;;23.91;36.35;101821.69;4957195;28;45401;-55
2022/06/12 22:01:49;;;;;;;;;1.00;1.00;;;;;23.89;36.46;101818.25;4957291;28;45479;-56
2022/06/12 22:04:16;;;;;;;;;1.00;1.00;;;;;23.91;36.05;101815.53;4956954;28;46667;-51
2022/06/12 22:06:42;;;;;;;;;3.25;1.00;;;;;23.90;36.09;101819.09;4955523;28;45412;-55
2022/06/12 22:09:07;;;;;;;;;1.00;1.00;;;;;23.89;36.22;101823.56;4957060;28;45360;-51
2022/06/12 22:11:33;;;;;;;;;2.00;1.75;;;;;23.89;36.17;101827.97;4957532;28;45468;-53
2022/06/12 22:13:58;;;;;;;;;2.00;1.00;;;;;23.87;35.88;101832.50;4955580;28;47281;-51
2022/06/12 22:16:23;;;;;;;;;2.50;1.00;;;;;23.87;36.18;101832.50;4956837;28;45338;-48
2022/06/12 22:18:49;;;;;;;;;2.25;1.00;;;;;23.88;35.91;101828.91;4956998;28;45251;-53
2022/06/12 22:21:14;;;;;;;;;1.00;1.00;;;;;23.88;35.83;101834.22;4956758;28;45532;-47
2022/06/12 22:23:39;;;;;;;;;1.00;1.00;;;;;23.85;35.95;101827.28;4956508;28;50998;-53
2022/06/12 22:26:05;;;;;;;;;1.25;1.25;;;;;23.87;36.21;101829.84;4958741;28;45283;-57
2022/06/12 22:28:31;;;;;;;;;2.25;1.00;;;;;23.85;35.89;101819.34;4960263;28;45295;-56
2022/06/12 22:30:56;;;;;;;;;1.50;1.00;;;;;23.86;35.91;101830.81;4960327;28;45492;-54
2022/06/12 22:33:21;;;;;;;;;5.00;1.00;;;;;23.86;35.90;101838.75;4960008;28;46287;-54
2022/06/12 22:35:47;;;;;;;;;1.25;1.25;;;;;23.86;35.71;101828.16;4959945;28;45243;-56
2022/06/12 22:38:12;;;;;;;;;3.00;1.25;;;;;23.84;35.86;101828.22;4960124;28;45167;-57
2022/06/12 22:40:37;;;;;;;;;3.00;2.00;;;;;23.84;35.51;101833.53;4960525;28;45206;-56
2022/06/12 22:43:03;;;;;;;;;1.00;1.00;;;;;23.85;35.53;101842.34;4960072;28;45673;-57
2022/06/12 22:45:30;;;;;;;;;1.75;1.75;;;;;23.83;35.86;101837.09;4959732;28;45305;-53
2022/06/12 22:47:55;;;;;;;;;1.00;1.00;;;;;23.82;35.80;101838.03;4959896;28;45420;-53
2022/06/12 22:50:21;;;;;;;;;3.25;1.25;;;;;23.82;35.54;101831.91;4959584;28;47136;-55
2022/06/12 22:52:47;;;;;;;;;1.25;1.00;;;;;23.82;35.73;101842.50;4959750;28;45947;-55
2022/06/12 22:55:12;;;;;;;;;1.25;1.25;;;;;23.84;35.64;101851.22;4959707;28;45349;-51
2022/06/12 22:57:37;;;;;;;;;1.75;1.75;;;;;23.82;35.74;101847.78;4960073;28;45437;-55
2022/06/12 23:00:05;;;;;;;;;1.25;1.00;;;;;23.82;35.77;101855.72;4959849;28;45676;-53
2022/06/12 23:02:30;;;;;;;;;1.75;0.50;;;;;23.81;35.56;101856.66;4959399;28;46387;-55
2022/06/12 23:04:56;;;;;;;;;2.00;2.00;;;;;23.81;35.44;101851.38;4959626;28;45183;-55
2022/06/12 23:07:21;;;;;;;;;2.75;2.00;;;;;23.81;35.18;101846.06;4959246;28;49198;-52
2022/06/12 23:09:46;;;;;;;;;1.25;1.00;;;;;23.80;35.72;101849.66;4959733;28;45235;-54
2022/06/12 23:12:12;;;;;;;;;2.00;2.00;;;;;23.79;35.08;101848.81;4959353;28;45553;-57
2022/06/12 23:14:37;;;;;;;;;2.00;2.00;;;;;23.79;35.53;101843.53;4959513;28;48653;-57
2022/06/12 23:17:03;;;;;;;;;1.00;1.00;;;;;23.78;35.37;101855.88;4959536;28;45234;-49
2022/06/12 23:19:29;;;;;;;;;1.75;1.75;;;;;23.78;35.33;101849.75;4959515;28;45203;-56
2022/06/12 23:21:54;;;;;;;;;0.25;0.25;;;;;23.77;35.36;101848.88;4959102;28;46202;-54
2022/06/12 23:24:19;;;;;;;;;1.00;1.00;;;;;23.76;35.62;101847.16;4959291;28;45217;-56
2022/06/12 23:26:45;;;;;;;;;2.00;2.00;;;;;23.76;34.99;101847.16;4959245;28;45365;-57
2022/06/12 23:29:10;;;;;;;;;3.00;2.00;;;;;23.76;35.57;101841.88;4958559;28;45583;-54
2022/06/12 23:31:39;;;;;;;;;4.25;1.50;;;;;23.75;35.44;101844.63;4959364;28;46387;-56
2022/06/12 23:34:06;;;;;;;;;2.25;1.50;;;;;23.74;35.01;101850.84;4958945;28;45419;-56
2022/06/12 23:36:32;;;;;;;;;1.00;1.00;;;;;23.74;35.50;101849.06;4958552;28;45361;-56
2022/06/12 23:38:57;;;;;;;;;1.00;1.00;;;;;23.74;35.46;101853.50;4959095;28;45552;-56
2022/06/12 23:41:23;;;;;;;;;1.00;1.00;;;;;23.73;35.39;101855.28;4958910;28;45458;-55
2022/06/12 23:43:48;;;;;;;;;1.00;1.00;;;;;23.72;35.54;101843.00;4958965;28;45211;-53
2022/06/12 23:46:16;;;;;;;;;2.25;1.00;;;;;23.73;35.27;101844.72;4958929;28;45282;-54
2022/06/12 23:48:43;;;;;;;;;2.00;2.00;;;;;23.72;35.72;101843.00;4959405;28;45528;-48
2022/06/12 23:51:08;;;;;;;;;0.50;0.50;;;;;23.72;35.40;101845.63;4959101;28;46177;-52
2022/06/12 23:53:34;;;;;;;;;1.00;1.00;;;;;23.71;35.55;101845.69;4958805;28;45401;-50
2022/06/12 23:56:00;;;;;;;;;2.00;2.00;;;;;23.71;35.29;101865.09;4958920;28;45307;-54
2022/06/12 23:58:25;;;;;;;;;0.50;0.00;;;;;23.71;35.52;101849.22;4959088;28;45261;-47
